sensor_id;sensor_type;location;lat;lon;timestamp;P1;durP1;ratioP1;P2;durP2;ratioP2
65658;SDS011;60181;53.258;6.932;2022-09-20T00:03:40;11.80;;;1.60;;
65658;SDS011;60181;53.258;6.932;2022-09-20T00:08:08;11.80;;;1.60;;
65658;SDS011;60181;53.258;6.932;2022-09-20T00:12:35;10.00;;;1.80;;
65658;SDS011;60181;53.258;6.932;2022-09-20T00:17:03;10.00;;;1.80;;
65658;SDS011;60181;53.258;6.932;2022-09-20T00:21:31;12.30;;;1.80;;
65658;SDS011;60181;53.258;6.932;2022-09-20T00:25:59;12.30;;;1.80;;
65658;SDS011;60181;53.258;6.932;2022-09-20T00:30:27;12.30;;;1.80;;
65658;SDS011;60181;53.258;6.932;2022-09-20T00:34:55;11.50;;;1.60;;
65658;SDS011;60181;53.258;6.932;2022-09-20T00:39:23;11.50;;;1.60;;
65658;SDS011;60181;53.258;6.932;2022-09-20T00:43:51;8.70;;;1.40;;
65658;SDS011;60181;53.258;6.932;2022-09-20T00:48:24;8.70;;;1.40;;
65658;SDS011;60181;53.258;6.932;2022-09-20T00:52:47;10.00;;;1.50;;
65658;SDS011;60181;53.258;6.932;2022-09-20T00:57:15;10.00;;;1.50;;
65658;SDS011;60181;53.258;6.932;2022-09-20T01:01:43;11.80;;;1.70;;
65658;SDS011;60181;53.258;6.932;2022-09-20T01:06:12;11.80;;;1.70;;
65658;SDS011;60181;53.258;6.932;2022-09-20T01:10:39;11.80;;;1.70;;
65658;SDS011;60181;53.258;6.932;2022-09-20T01:15:07;14.10;;;1.80;;
65658;SDS011;60181;53.258;6.932;2022-09-20T01:24:26;12.10;;;1.50;;
65658;SDS011;60181;53.258;6.932;2022-09-20T01:28:31;12.10;;;1.50;;
65658;SDS011;60181;53.258;6.932;2022-09-20T01:37:36;13.40;;;1.60;;
65658;SDS011;60181;53.258;6.932;2022-09-20T01:41:58;9.50;;;1.60;;
65658;SDS011;60181;53.258;6.932;2022-09-20T01:46:29;9.50;;;1.60;;
65658;SDS011;60181;53.258;6.932;2022-09-20T02:04:20;10.40;;;1.40;;
65658;SDS011;60181;53.258;6.932;2022-09-20T02:08:56;10.40;;;1.40;;
65658;SDS011;60181;53.258;6.932;2022-09-20T02:13:26;5.30;;;1.20;;
65658;SDS011;60181;53.258;6.932;2022-09-20T02:22:25;9.30;;;1.20;;
65658;SDS011;60181;53.258;6.932;2022-09-20T02:31:17;12.20;;;1.30;;
65658;SDS011;60181;53.258;6.932;2022-09-20T02:35:36;12.20;;;1.30;;
65658;SDS011;60181;53.258;6.932;2022-09-20T02:40:13;12.20;;;1.30;;
65658;SDS011;60181;53.258;6.932;2022-09-20T02:44:38;9.60;;;1.30;;
65658;SDS011;60181;53.258;6.932;2022-09-20T02:49:00;9.60;;;1.30;;
65658;SDS011;60181;53.258;6.932;2022-09-20T02:57:53;12.30;;;1.30;;
65658;SDS011;60181;53.258;6.932;2022-09-20T03:02:21;8.90;;;1.20;;
65658;SDS011;60181;53.258;6.932;2022-09-20T03:11:17;10.80;;;1.30;;
65658;SDS011;60181;53.258;6.932;2022-09-20T03:15:51;10.80;;;1.30;;
65658;SDS011;60181;53.258;6.932;2022-09-20T03:42:31;11.70;;;1.70;;
65658;SDS011;60181;53.258;6.932;2022-09-20T03:47:16;11.70;;;1.70;;
65658;SDS011;60181;53.258;6.932;2022-09-20T03:51:53;11.80;;;1.40;;
65658;SDS011;60181;53.258;6.932;2022-09-20T03:55:57;11.80;;;1.40;;
65658;SDS011;60181;53.258;6.932;2022-09-20T04:00:30;11.80;;;1.40;;
65658;SDS011;60181;53.258;6.932;2022-09-20T04:04:52;10.20;;;1.50;;
65658;SDS011;60181;53.258;6.932;2022-09-20T04:09:38;10.20;;;1.50;;
65658;SDS011;60181;53.258;6.932;2022-09-20T04:13:53;9.70;;;1.30;;
65658;SDS011;60181;53.258;6.932;2022-09-20T04:22:42;8.30;;;1.70;;
65658;SDS011;60181;53.258;6.932;2022-09-20T04:31:45;6.80;;;1.30;;
65658;SDS011;60181;53.258;6.932;2022-09-20T04:40:52;6.80;;;1.30;;
65658;SDS011;60181;53.258;6.932;2022-09-20T05:16:28;10.00;;;1.60;;
65658;SDS011;60181;53.258;6.932;2022-09-20T05:29:48;13.90;;;1.80;;
65658;SDS011;60181;53.258;6.932;2022-09-20T05:34:13;7.70;;;1.60;;
65658;SDS011;60181;53.258;6.932;2022-09-20T05:38:42;7.70;;;1.60;;
65658;SDS011;60181;53.258;6.932;2022-09-20T05:43:10;8.20;;;1.90;;
65658;SDS011;60181;53.258;6.932;2022-09-20T05:47:36;8.20;;;1.90;;
65658;SDS011;60181;53.258;6.932;2022-09-20T06:01:01;7.90;;;1.70;;
65658;SDS011;60181;53.258;6.932;2022-09-20T06:10:04;8.90;;;1.60;;
65658;SDS011;60181;53.258;6.932;2022-09-20T06:23:18;6.60;;;1.40;;
65658;SDS011;60181;53.258;6.932;2022-09-20T06:28:05;6.60;;;1.40;;
65658;SDS011;60181;53.258;6.932;2022-09-20T06:32:17;13.30;;;1.60;;
65658;SDS011;60181;53.258;6.932;2022-09-20T06:36:44;13.30;;;1.60;;
65658;SDS011;60181;53.258;6.932;2022-09-20T06:41:10;13.30;;;1.60;;
65658;SDS011;60181;53.258;6.932;2022-09-20T06:45:39;7.60;;;1.80;;
65658;SDS011;60181;53.258;6.932;2022-09-20T06:50:10;7.60;;;1.80;;
65658;SDS011;60181;53.258;6.932;2022-09-20T06:54:34;8.90;;;1.50;;
65658;SDS011;60181;53.258;6.932;2022-09-20T06:59:03;8.90;;;1.50;;
65658;SDS011;60181;53.258;6.932;2022-09-20T07:03:30;8.20;;;1.10;;
65658;SDS011;60181;53.258;6.932;2022-09-20T07:07:58;8.20;;;1.10;;
65658;SDS011;60181;53.258;6.932;2022-09-20T07:12:27;7.80;;;1.30;;
65658;SDS011;60181;53.258;6.932;2022-09-20T07:16:54;7.80;;;1.30;;
65658;SDS011;60181;53.258;6.932;2022-09-20T07:21:22;6.50;;;1.10;;
65658;SDS011;60181;53.258;6.932;2022-09-20T07:25:50;6.50;;;1.10;;
65658;SDS011;60181;53.258;6.932;2022-09-20T07:30:18;6.50;;;1.10;;
65658;SDS011;60181;53.258;6.932;2022-09-20T07:34:46;5.10;;;1.30;;
65658;SDS011;60181;53.258;6.932;2022-09-20T07:39:14;5.10;;;1.30;;
65658;SDS011;60181;53.258;6.932;2022-09-20T07:43:42;5.40;;;1.30;;
65658;SDS011;60181;53.258;6.932;2022-09-20T07:48:10;5.40;;;1.30;;
65658;SDS011;60181;53.258;6.932;2022-09-20T07:52:38;5.10;;;1.20;;
65658;SDS011;60181;53.258;6.932;2022-09-20T07:57:06;5.10;;;1.20;;
65658;SDS011;60181;53.258;6.932;2022-09-20T08:01:34;5.90;;;1.40;;
65658;SDS011;60181;53.258;6.932;2022-09-20T08:06:06;5.90;;;1.40;;
65658;SDS011;60181;53.258;6.932;2022-09-20T08:10:30;5.90;;;1.40;;
65658;SDS011;60181;53.258;6.932;2022-09-20T08:14:58;3.90;;;1.20;;
65658;SDS011;60181;53.258;6.932;2022-09-20T08:19:26;3.90;;;1.20;;
65658;SDS011;60181;53.258;6.932;2022-09-20T08:23:54;6.10;;;1.40;;
65658;SDS011;60181;53.258;6.932;2022-09-20T08:28:22;6.10;;;1.40;;
65658;SDS011;60181;53.258;6.932;2022-09-20T08:32:50;9.50;;;1.30;;
65658;SDS011;60181;53.258;6.932;2022-09-20T08:37:18;9.50;;;1.30;;
65658;SDS011;60181;53.258;6.932;2022-09-20T08:46:15;6.50;;;1.40;;
65658;SDS011;60181;53.258;6.932;2022-09-20T08:50:42;6.50;;;1.40;;
65658;SDS011;60181;53.258;6.932;2022-09-20T08:55:17;6.10;;;1.30;;
65658;SDS011;60181;53.258;6.932;2022-09-20T08:59:38;6.10;;;1.30;;
65658;SDS011;60181;53.258;6.932;2022-09-20T09:08:34;4.50;;;1.60;;
65658;SDS011;60181;53.258;6.932;2022-09-20T09:13:02;10.10;;;2.20;;
65658;SDS011;60181;53.258;6.932;2022-09-20T09:17:30;10.10;;;2.20;;
65658;SDS011;60181;53.258;6.932;2022-09-20T09:22:02;9.80;;;1.90;;
65658;SDS011;60181;53.258;6.932;2022-09-20T09:26:26;9.80;;;1.90;;
65658;SDS011;60181;53.258;6.932;2022-09-20T09:30:54;9.80;;;1.90;;
65658;SDS011;60181;53.258;6.932;2022-09-20T09:35:27;13.20;;;2.10;;
65658;SDS011;60181;53.258;6.932;2022-09-20T09:40:06;13.20;;;2.10;;
65658;SDS011;60181;53.258;6.932;2022-09-20T09:44:20;7.20;;;2.20;;
65658;SDS011;60181;53.258;6.932;2022-09-20T09:48:46;7.20;;;2.20;;
65658;SDS011;60181;53.258;6.932;2022-09-20T09:53:15;5.50;;;2.00;;
65658;SDS011;60181;53.258;6.932;2022-09-20T09:57:45;5.50;;;2.00;;
65658;SDS011;60181;53.258;6.932;2022-09-20T10:02:28;8.10;;;2.10;;
65658;SDS011;60181;53.258;6.932;2022-09-20T10:06:48;8.10;;;2.10;;
65658;SDS011;60181;53.258;6.932;2022-09-20T10:11:13;8.10;;;2.10;;
65658;SDS011;60181;53.258;6.932;2022-09-20T10:15:42;5.70;;;1.90;;
65658;SDS011;60181;53.258;6.932;2022-09-20T10:20:08;5.70;;;1.90;;
65658;SDS011;60181;53.258;6.932;2022-09-20T10:24:45;4.00;;;1.80;;
65658;SDS011;60181;53.258;6.932;2022-09-20T10:33:32;7.00;;;1.80;;
65658;SDS011;60181;53.258;6.932;2022-09-20T10:38:01;7.00;;;1.80;;
65658;SDS011;60181;53.258;6.932;2022-09-20T10:42:41;6.00;;;2.10;;
65658;SDS011;60181;53.258;6.932;2022-09-20T10:46:56;6.00;;;2.10;;
65658;SDS011;60181;53.258;6.932;2022-09-20T10:51:35;5.30;;;2.60;;
65658;SDS011;60181;53.258;6.932;2022-09-20T11:09:11;7.40;;;2.40;;
65658;SDS011;60181;53.258;6.932;2022-09-20T11:18:11;5.90;;;2.90;;
65658;SDS011;60181;53.258;6.932;2022-09-20T11:22:39;8.20;;;3.60;;
65658;SDS011;60181;53.258;6.932;2022-09-20T11:27:08;8.20;;;3.60;;
65658;SDS011;60181;53.258;6.932;2022-09-20T11:31:32;6.70;;;3.20;;
65658;SDS011;60181;53.258;6.932;2022-09-20T11:35:59;6.70;;;3.20;;
65658;SDS011;60181;53.258;6.932;2022-09-20T11:40:27;6.70;;;3.20;;
65658;SDS011;60181;53.258;6.932;2022-09-20T11:44:54;11.70;;;3.10;;
65658;SDS011;60181;53.258;6.932;2022-09-20T11:49:22;11.70;;;3.10;;
65658;SDS011;60181;53.258;6.932;2022-09-20T11:58:18;8.50;;;3.30;;
65658;SDS011;60181;53.258;6.932;2022-09-20T12:02:47;6.80;;;3.10;;
65658;SDS011;60181;53.258;6.932;2022-09-20T12:07:18;6.80;;;3.10;;
65658;SDS011;60181;53.258;6.932;2022-09-20T12:11:42;7.20;;;3.10;;
65658;SDS011;60181;53.258;6.932;2022-09-20T12:16:14;7.20;;;3.10;;
65658;SDS011;60181;53.258;6.932;2022-09-20T12:38:30;8.10;;;3.00;;
65658;SDS011;60181;53.258;6.932;2022-09-20T12:42:58;5.50;;;2.70;;
65658;SDS011;60181;53.258;6.932;2022-09-20T12:47:32;5.50;;;2.70;;
65658;SDS011;60181;53.258;6.932;2022-09-20T12:51:54;7.10;;;2.50;;
65658;SDS011;60181;53.258;6.932;2022-09-20T12:56:22;7.10;;;2.50;;
65658;SDS011;60181;53.258;6.932;2022-09-20T13:05:39;7.10;;;2.60;;
65658;SDS011;60181;53.258;6.932;2022-09-20T13:09:46;7.10;;;2.60;;
65658;SDS011;60181;53.258;6.932;2022-09-20T13:18:42;7.80;;;2.80;;
65658;SDS011;60181;53.258;6.932;2022-09-20T13:23:16;5.30;;;2.50;;
65658;SDS011;60181;53.258;6.932;2022-09-20T13:27:39;5.30;;;2.50;;
65658;SDS011;60181;53.258;6.932;2022-09-20T13:32:21;5.90;;;2.50;;
65658;SDS011;60181;53.258;6.932;2022-09-20T13:36:34;5.90;;;2.50;;
65658;SDS011;60181;53.258;6.932;2022-09-20T13:41:05;5.90;;;2.50;;
65658;SDS011;60181;53.258;6.932;2022-09-20T13:45:30;4.50;;;2.30;;
65658;SDS011;60181;53.258;6.932;2022-09-20T13:49:58;4.50;;;2.30;;
65658;SDS011;60181;53.258;6.932;2022-09-20T13:54:29;4.80;;;2.20;;
65658;SDS011;60181;53.258;6.932;2022-09-20T13:58:54;4.80;;;2.20;;
65658;SDS011;60181;53.258;6.932;2022-09-20T14:03:22;5.80;;;2.40;;
65658;SDS011;60181;53.258;6.932;2022-09-20T14:07:50;5.80;;;2.40;;
65658;SDS011;60181;53.258;6.932;2022-09-20T14:12:17;4.70;;;2.10;;
65658;SDS011;60181;53.258;6.932;2022-09-20T14:16:45;4.70;;;2.10;;
65658;SDS011;60181;53.258;6.932;2022-09-20T14:21:16;5.30;;;2.00;;
65658;SDS011;60181;53.258;6.932;2022-09-20T14:25:41;5.30;;;2.00;;
65658;SDS011;60181;53.258;6.932;2022-09-20T14:30:32;5.30;;;2.00;;
65658;SDS011;60181;53.258;6.932;2022-09-20T14:34:38;4.10;;;2.10;;
65658;SDS011;60181;53.258;6.932;2022-09-20T14:39:09;4.10;;;2.10;;
65658;SDS011;60181;53.258;6.932;2022-09-20T14:43:34;5.20;;;2.00;;
65658;SDS011;60181;53.258;6.932;2022-09-20T14:52:31;4.40;;;2.00;;
65658;SDS011;60181;53.258;6.932;2022-09-20T14:56:57;4.40;;;2.00;;
65658;SDS011;60181;53.258;6.932;2022-09-20T15:01:25;4.90;;;2.00;;
65658;SDS011;60181;53.258;6.932;2022-09-20T15:05:53;4.90;;;2.00;;
65658;SDS011;60181;53.258;6.932;2022-09-20T15:10:21;4.90;;;2.00;;
65658;SDS011;60181;53.258;6.932;2022-09-20T15:14:49;5.10;;;1.90;;
65658;SDS011;60181;53.258;6.932;2022-09-20T15:19:17;5.10;;;1.90;;
65658;SDS011;60181;53.258;6.932;2022-09-20T15:23:45;6.00;;;2.10;;
65658;SDS011;60181;53.258;6.932;2022-09-20T15:28:14;6.00;;;2.10;;
65658;SDS011;60181;53.258;6.932;2022-09-20T15:32:42;3.20;;;1.80;;
65658;SDS011;60181;53.258;6.932;2022-09-20T15:37:09;3.20;;;1.80;;
65658;SDS011;60181;53.258;6.932;2022-09-20T15:41:37;4.10;;;1.90;;
65658;SDS011;60181;53.258;6.932;2022-09-20T15:46:19;4.10;;;1.90;;
65658;SDS011;60181;53.258;6.932;2022-09-20T15:50:33;4.10;;;1.90;;
65658;SDS011;60181;53.258;6.932;2022-09-20T15:55:02;5.50;;;1.90;;
65658;SDS011;60181;53.258;6.932;2022-09-20T15:59:29;5.50;;;1.90;;
65658;SDS011;60181;53.258;6.932;2022-09-20T16:03:58;3.60;;;1.70;;
65658;SDS011;60181;53.258;6.932;2022-09-20T16:08:29;3.60;;;1.70;;
65658;SDS011;60181;53.258;6.932;2022-09-20T16:12:53;3.50;;;1.60;;
65658;SDS011;60181;53.258;6.932;2022-09-20T16:17:21;3.50;;;1.60;;
65658;SDS011;60181;53.258;6.932;2022-09-20T16:21:50;4.10;;;1.70;;
65658;SDS011;60181;53.258;6.932;2022-09-20T16:26:18;4.10;;;1.70;;
65658;SDS011;60181;53.258;6.932;2022-09-20T16:30:54;4.10;;;1.70;;
65658;SDS011;60181;53.258;6.932;2022-09-20T16:35:13;5.40;;;1.70;;
65658;SDS011;60181;53.258;6.932;2022-09-20T16:39:41;5.40;;;1.70;;
65658;SDS011;60181;53.258;6.932;2022-09-20T16:44:09;4.20;;;1.70;;
65658;SDS011;60181;53.258;6.932;2022-09-20T16:48:37;4.20;;;1.70;;
65658;SDS011;60181;53.258;6.932;2022-09-20T16:53:05;5.30;;;1.50;;
65658;SDS011;60181;53.258;6.932;2022-09-20T16:57:33;5.30;;;1.50;;
65658;SDS011;60181;53.258;6.932;2022-09-20T17:02:01;5.10;;;1.60;;
65658;SDS011;60181;53.258;6.932;2022-09-20T17:06:30;5.10;;;1.60;;
65658;SDS011;60181;53.258;6.932;2022-09-20T17:10:58;5.10;;;1.60;;
65658;SDS011;60181;53.258;6.932;2022-09-20T17:15:25;4.10;;;1.40;;
65658;SDS011;60181;53.258;6.932;2022-09-20T17:19:53;4.10;;;1.40;;
65658;SDS011;60181;53.258;6.932;2022-09-20T17:24:21;4.60;;;1.40;;
65658;SDS011;60181;53.258;6.932;2022-09-20T17:28:50;4.60;;;1.40;;
65658;SDS011;60181;53.258;6.932;2022-09-20T17:33:17;3.50;;;1.40;;
65658;SDS011;60181;53.258;6.932;2022-09-20T17:37:45;3.50;;;1.40;;
65658;SDS011;60181;53.258;6.932;2022-09-20T17:42:13;3.60;;;1.30;;
65658;SDS011;60181;53.258;6.932;2022-09-20T17:46:42;3.60;;;1.30;;
65658;SDS011;60181;53.258;6.932;2022-09-20T17:51:09;3.60;;;1.30;;
65658;SDS011;60181;53.258;6.932;2022-09-20T17:55:37;4.00;;;1.30;;
65658;SDS011;60181;53.258;6.932;2022-09-20T18:00:06;4.00;;;1.30;;
65658;SDS011;60181;53.258;6.932;2022-09-20T18:04:33;4.70;;;1.50;;
65658;SDS011;60181;53.258;6.932;2022-09-20T18:09:03;4.70;;;1.50;;
65658;SDS011;60181;53.258;6.932;2022-09-20T18:13:29;5.10;;;1.30;;
65658;SDS011;60181;53.258;6.932;2022-09-20T18:17:57;5.10;;;1.30;;
65658;SDS011;60181;53.258;6.932;2022-09-20T18:22:25;6.40;;;1.50;;
65658;SDS011;60181;53.258;6.932;2022-09-20T18:26:53;6.40;;;1.50;;
65658;SDS011;60181;53.258;6.932;2022-09-20T18:31:22;4.40;;;1.30;;
65658;SDS011;60181;53.258;6.932;2022-09-20T18:35:49;4.40;;;1.30;;
65658;SDS011;60181;53.258;6.932;2022-09-20T18:40:17;4.40;;;1.30;;
65658;SDS011;60181;53.258;6.932;2022-09-20T18:44:45;8.90;;;1.50;;
65658;SDS011;60181;53.258;6.932;2022-09-20T18:49:13;8.90;;;1.50;;
65658;SDS011;60181;53.258;6.932;2022-09-20T18:53:41;4.80;;;1.30;;
65658;SDS011;60181;53.258;6.932;2022-09-20T18:58:09;4.80;;;1.30;;
65658;SDS011;60181;53.258;6.932;2022-09-20T19:02:55;3.20;;;1.30;;
65658;SDS011;60181;53.258;6.932;2022-09-20T19:11:35;4.20;;;1.40;;
65658;SDS011;60181;53.258;6.932;2022-09-20T19:25:02;4.50;;;1.20;;
65658;SDS011;60181;53.258;6.932;2022-09-20T19:29:26;4.50;;;1.20;;
65658;SDS011;60181;53.258;6.932;2022-09-20T19:33:54;4.10;;;1.50;;
65658;SDS011;60181;53.258;6.932;2022-09-20T19:51:45;2.90;;;1.20;;
65658;SDS011;60181;53.258;6.932;2022-09-20T19:56:23;2.90;;;1.20;;
65658;SDS011;60181;53.258;6.932;2022-09-20T20:00:44;2.90;;;1.20;;
65658;SDS011;60181;53.258;6.932;2022-09-20T20:05:10;4.50;;;1.50;;
65658;SDS011;60181;53.258;6.932;2022-09-20T20:09:44;4.50;;;1.50;;
65658;SDS011;60181;53.258;6.932;2022-09-20T20:18:38;4.00;;;1.40;;
65658;SDS011;60181;53.258;6.932;2022-09-20T20:23:05;6.60;;;1.60;;
65658;SDS011;60181;53.258;6.932;2022-09-20T20:27:29;6.60;;;1.60;;
65658;SDS011;60181;53.258;6.932;2022-09-20T20:31:57;4.40;;;1.50;;
65658;SDS011;60181;53.258;6.932;2022-09-20T20:36:25;4.40;;;1.50;;
65658;SDS011;60181;53.258;6.932;2022-09-20T20:41:00;4.40;;;1.50;;
65658;SDS011;60181;53.258;6.932;2022-09-20T20:45:21;5.00;;;1.40;;
65658;SDS011;60181;53.258;6.932;2022-09-20T20:49:49;5.00;;;1.40;;
65658;SDS011;60181;53.258;6.932;2022-09-20T20:54:17;4.30;;;1.60;;
65658;SDS011;60181;53.258;6.932;2022-09-20T20:58:45;4.30;;;1.60;;
65658;SDS011;60181;53.258;6.932;2022-09-20T21:03:13;11.60;;;2.50;;
65658;SDS011;60181;53.258;6.932;2022-09-20T21:07:41;11.60;;;2.50;;
65658;SDS011;60181;53.258;6.932;2022-09-20T21:12:09;8.50;;;2.60;;
65658;SDS011;60181;53.258;6.932;2022-09-20T21:16:38;8.50;;;2.60;;
65658;SDS011;60181;53.258;6.932;2022-09-20T21:21:18;8.50;;;2.60;;
65658;SDS011;60181;53.258;6.932;2022-09-20T21:25:33;8.70;;;2.40;;
65658;SDS011;60181;53.258;6.932;2022-09-20T21:30:01;8.70;;;2.40;;
65658;SDS011;60181;53.258;6.932;2022-09-20T21:34:29;9.30;;;2.70;;
65658;SDS011;60181;53.258;6.932;2022-09-20T21:38:57;9.30;;;2.70;;
65658;SDS011;60181;53.258;6.932;2022-09-20T21:43:25;8.30;;;2.70;;
65658;SDS011;60181;53.258;6.932;2022-09-20T21:47:53;8.30;;;2.70;;
65658;SDS011;60181;53.258;6.932;2022-09-20T21:52:21;7.50;;;2.50;;
65658;SDS011;60181;53.258;6.932;2022-09-20T21:56:49;7.50;;;2.50;;
65658;SDS011;60181;53.258;6.932;2022-09-20T22:01:18;7.50;;;2.50;;
65658;SDS011;60181;53.258;6.932;2022-09-20T22:05:45;9.20;;;2.70;;
65658;SDS011;60181;53.258;6.932;2022-09-20T22:10:13;9.20;;;2.70;;
65658;SDS011;60181;53.258;6.932;2022-09-20T22:14:41;6.70;;;2.50;;
65658;SDS011;60181;53.258;6.932;2022-09-20T22:19:10;6.70;;;2.50;;
65658;SDS011;60181;53.258;6.932;2022-09-20T22:23:37;7.10;;;2.50;;
65658;SDS011;60181;53.258;6.932;2022-09-20T22:28:05;7.10;;;2.50;;
65658;SDS011;60181;53.258;6.932;2022-09-20T22:32:33;8.20;;;2.60;;
65658;SDS011;60181;53.258;6.932;2022-09-20T22:37:01;8.20;;;2.60;;
65658;SDS011;60181;53.258;6.932;2022-09-20T22:41:29;9.20;;;2.50;;
65658;SDS011;60181;53.258;6.932;2022-09-20T22:46:03;9.20;;;2.50;;
65658;SDS011;60181;53.258;6.932;2022-09-20T22:50:25;9.20;;;2.50;;
65658;SDS011;60181;53.258;6.932;2022-09-20T22:54:53;8.30;;;2.70;;
65658;SDS011;60181;53.258;6.932;2022-09-20T22:59:21;8.30;;;2.70;;
65658;SDS011;60181;53.258;6.932;2022-09-20T23:03:53;9.90;;;2.70;;
65658;SDS011;60181;53.258;6.932;2022-09-20T23:08:17;9.90;;;2.70;;
65658;SDS011;60181;53.258;6.932;2022-09-20T23:12:48;10.00;;;2.90;;
65658;SDS011;60181;53.258;6.932;2022-09-20T23:17:13;10.00;;;2.90;;
65658;SDS011;60181;53.258;6.932;2022-09-20T23:21:41;11.20;;;2.70;;
65658;SDS011;60181;53.258;6.932;2022-09-20T23:26:10;11.20;;;2.70;;
65658;SDS011;60181;53.258;6.932;2022-09-20T23:30:37;11.20;;;2.70;;
65658;SDS011;60181;53.258;6.932;2022-09-20T23:35:05;7.70;;;2.50;;
65658;SDS011;60181;53.258;6.932;2022-09-20T23:39:33;7.70;;;2.50;;
65658;SDS011;60181;53.258;6.932;2022-09-20T23:44:01;6.70;;;2.50;;
65658;SDS011;60181;53.258;6.932;2022-09-20T23:48:29;6.70;;;2.50;;
65658;SDS011;60181;53.258;6.932;2022-09-20T23:52:57;7.00;;;2.50;;
65658;SDS011;60181;53.258;6.932;2022-09-20T23:57:25;7.00;;;2.50;;
